sensor_id;sensor_type;location;lat;lon;timestamp;temperature;humidity
54158;DHT22;40065;49.894;10.358;2024-02-26T00:01:05;6.90;99.90
54158;DHT22;40065;49.894;10.358;2024-02-26T00:06:07;6.90;99.90
54158;DHT22;40065;49.894;10.358;2024-02-26T00:11:10;6.90;99.90
54158;DHT22;40065;49.894;10.358;2024-02-26T00:16:12;6.80;99.90
54158;DHT22;40065;49.894;10.358;2024-02-26T00:21:14;6.80;99.90
54158;DHT22;40065;49.894;10.358;2024-02-26T00:26:16;6.80;99.90
54158;DHT22;40065;49.894;10.358;2024-02-26T00:31:18;6.70;99.90
54158;DHT22;40065;49.894;10.358;2024-02-26T00:36:20;6.70;99.90
54158;DHT22;40065;49.894;10.358;2024-02-26T00:41:22;6.70;99.90
54158;DHT22;40065;49.894;10.358;2024-02-26T00:46:24;6.70;99.90
54158;DHT22;40065;49.894;10.358;2024-02-26T00:51:25;6.70;99.90
54158;DHT22;40065;49.894;10.358;2024-02-26T00:56:27;6.70;99.90
54158;DHT22;40065;49.894;10.358;2024-02-26T01:01:29;6.70;99.90
54158;DHT22;40065;49.894;10.358;2024-02-26T01:06:31;6.70;99.90
54158;DHT22;40065;49.894;10.358;2024-02-26T01:11:33;6.70;99.90
54158;DHT22;40065;49.894;10.358;2024-02-26T01:16:35;6.80;99.90
54158;DHT22;40065;49.894;10.358;2024-02-26T01:21:37;6.70;99.90
54158;DHT22;40065;49.894;10.358;2024-02-26T01:26:39;6.80;99.90
54158;DHT22;40065;49.894;10.358;2024-02-26T01:31:41;6.80;99.90
54158;DHT22;40065;49.894;10.358;2024-02-26T01:36:43;6.70;99.90
54158;DHT22;40065;49.894;10.358;2024-02-26T01:41:45;6.70;99.90
54158;DHT22;40065;49.894;10.358;2024-02-26T01:46:47;6.80;99.90
54158;DHT22;40065;49.894;10.358;2024-02-26T01:51:49;6.80;99.90
54158;DHT22;40065;49.894;10.358;2024-02-26T01:56:51;6.80;99.90
54158;DHT22;40065;49.894;10.358;2024-02-26T02:01:57;6.90;99.90
54158;DHT22;40065;49.894;10.358;2024-02-26T02:07:01;7.10;99.90
54158;DHT22;40065;49.894;10.358;2024-02-26T02:12:04;7.10;99.90
54158;DHT22;40065;49.894;10.358;2024-02-26T02:17:06;7.00;99.90
54158;DHT22;40065;49.894;10.358;2024-02-26T02:22:08;7.00;99.90
54158;DHT22;40065;49.894;10.358;2024-02-26T02:27:10;7.00;99.90
54158;DHT22;40065;49.894;10.358;2024-02-26T02:32:12;7.00;99.90
54158;DHT22;40065;49.894;10.358;2024-02-26T02:37:14;6.30;99.90
54158;DHT22;40065;49.894;10.358;2024-02-26T02:42:16;6.10;99.90
54158;DHT22;40065;49.894;10.358;2024-02-26T02:47:18;6.30;99.90
54158;DHT22;40065;49.894;10.358;2024-02-26T02:52:20;6.20;99.90
54158;DHT22;40065;49.894;10.358;2024-02-26T02:57:22;6.00;99.90
54158;DHT22;40065;49.894;10.358;2024-02-26T03:02:24;6.20;99.90
54158;DHT22;40065;49.894;10.358;2024-02-26T03:07:29;6.20;99.90
54158;DHT22;40065;49.894;10.358;2024-02-26T03:12:32;6.20;99.90
54158;DHT22;40065;49.894;10.358;2024-02-26T03:17:34;6.20;99.90
54158;DHT22;40065;49.894;10.358;2024-02-26T03:22:35;6.20;99.90
54158;DHT22;40065;49.894;10.358;2024-02-26T03:27:37;6.30;99.90
54158;DHT22;40065;49.894;10.358;2024-02-26T03:32:39;6.10;99.90
54158;DHT22;40065;49.894;10.358;2024-02-26T03:37:41;5.90;99.90
54158;DHT22;40065;49.894;10.358;2024-02-26T03:42:43;5.90;99.90
54158;DHT22;40065;49.894;10.358;2024-02-26T03:47:45;5.80;99.90
54158;DHT22;40065;49.894;10.358;2024-02-26T03:52:47;5.70;99.90
54158;DHT22;40065;49.894;10.358;2024-02-26T03:57:48;5.50;99.90
54158;DHT22;40065;49.894;10.358;2024-02-26T04:02:50;5.50;99.90
54158;DHT22;40065;49.894;10.358;2024-02-26T04:07:52;5.30;99.90
54158;DHT22;40065;49.894;10.358;2024-02-26T04:12:54;5.30;99.90
54158;DHT22;40065;49.894;10.358;2024-02-26T04:17:56;5.40;99.90
54158;DHT22;40065;49.894;10.358;2024-02-26T04:22:58;5.30;99.90
54158;DHT22;40065;49.894;10.358;2024-02-26T04:28:00;5.10;99.90
54158;DHT22;40065;49.894;10.358;2024-02-26T04:33:02;5.00;99.90
54158;DHT22;40065;49.894;10.358;2024-02-26T04:38:04;5.00;99.90
54158;DHT22;40065;49.894;10.358;2024-02-26T04:43:06;5.00;99.90
54158;DHT22;40065;49.894;10.358;2024-02-26T04:48:07;5.00;99.90
54158;DHT22;40065;49.894;10.358;2024-02-26T04:53:10;5.00;99.90
54158;DHT22;40065;49.894;10.358;2024-02-26T04:58:12;4.90;99.90
54158;DHT22;40065;49.894;10.358;2024-02-26T05:03:13;4.90;99.90
54158;DHT22;40065;49.894;10.358;2024-02-26T05:08:17;4.90;99.90
54158;DHT22;40065;49.894;10.358;2024-02-26T05:13:19;4.80;99.90
54158;DHT22;40065;49.894;10.358;2024-02-26T05:18:22;4.80;99.90
54158;DHT22;40065;49.894;10.358;2024-02-26T05:23:25;4.70;99.90
54158;DHT22;40065;49.894;10.358;2024-02-26T05:28:27;4.70;99.90
54158;DHT22;40065;49.894;10.358;2024-02-26T05:33:29;4.70;99.90
54158;DHT22;40065;49.894;10.358;2024-02-26T05:38:31;4.70;99.90
54158;DHT22;40065;49.894;10.358;2024-02-26T05:43:33;4.60;99.90
54158;DHT22;40065;49.894;10.358;2024-02-26T05:48:35;4.80;99.90
54158;DHT22;40065;49.894;10.358;2024-02-26T05:53:37;5.20;99.90
54158;DHT22;40065;49.894;10.358;2024-02-26T05:58:39;5.20;99.90
54158;DHT22;40065;49.894;10.358;2024-02-26T06:03:41;5.10;99.90
54158;DHT22;40065;49.894;10.358;2024-02-26T06:08:43;5.10;99.90
54158;DHT22;40065;49.894;10.358;2024-02-26T06:13:45;5.00;99.90
54158;DHT22;40065;49.894;10.358;2024-02-26T06:18:47;5.10;99.90
54158;DHT22;40065;49.894;10.358;2024-02-26T06:23:49;5.30;99.90
54158;DHT22;40065;49.894;10.358;2024-02-26T06:28:52;5.30;99.90
54158;DHT22;40065;49.894;10.358;2024-02-26T06:33:55;5.20;99.90
54158;DHT22;40065;49.894;10.358;2024-02-26T06:38:58;5.20;99.90
54158;DHT22;40065;49.894;10.358;2024-02-26T06:43:59;5.20;99.90
54158;DHT22;40065;49.894;10.358;2024-02-26T06:49:01;5.40;99.90
54158;DHT22;40065;49.894;10.358;2024-02-26T06:54:04;5.40;99.90
54158;DHT22;40065;49.894;10.358;2024-02-26T06:59:06;5.30;99.90
54158;DHT22;40065;49.894;10.358;2024-02-26T07:04:08;5.30;99.90
54158;DHT22;40065;49.894;10.358;2024-02-26T07:09:10;5.40;99.90
54158;DHT22;40065;49.894;10.358;2024-02-26T07:14:14;5.50;99.90
54158;DHT22;40065;49.894;10.358;2024-02-26T07:19:16;5.70;99.90
54158;DHT22;40065;49.894;10.358;2024-02-26T07:24:18;5.80;99.90
54158;DHT22;40065;49.894;10.358;2024-02-26T07:29:20;6.00;99.90
54158;DHT22;40065;49.894;10.358;2024-02-26T07:34:22;6.10;99.90
54158;DHT22;40065;49.894;10.358;2024-02-26T07:39:29;6.10;99.90
54158;DHT22;40065;49.894;10.358;2024-02-26T07:44:31;6.30;99.90
54158;DHT22;40065;49.894;10.358;2024-02-26T07:49:33;6.40;99.90
54158;DHT22;40065;49.894;10.358;2024-02-26T07:54:39;6.50;99.90
54158;DHT22;40065;49.894;10.358;2024-02-26T07:59:41;6.50;99.90
54158;DHT22;40065;49.894;10.358;2024-02-26T08:04:43;6.50;99.90
54158;DHT22;40065;49.894;10.358;2024-02-26T08:09:45;6.70;99.90
54158;DHT22;40065;49.894;10.358;2024-02-26T08:14:47;6.80;99.90
54158;DHT22;40065;49.894;10.358;2024-02-26T08:19:50;7.00;99.90
54158;DHT22;40065;49.894;10.358;2024-02-26T08:24:52;7.40;99.90
54158;DHT22;40065;49.894;10.358;2024-02-26T08:29:53;7.80;99.90
54158;DHT22;40065;49.894;10.358;2024-02-26T08:34:55;7.90;99.90
54158;DHT22;40065;49.894;10.358;2024-02-26T08:39:57;7.90;99.90
54158;DHT22;40065;49.894;10.358;2024-02-26T08:45:04;8.60;99.90
54158;DHT22;40065;49.894;10.358;2024-02-26T08:50:06;8.40;99.90
54158;DHT22;40065;49.894;10.358;2024-02-26T08:55:08;8.40;99.90
54158;DHT22;40065;49.894;10.358;2024-02-26T09:00:11;8.60;99.90
54158;DHT22;40065;49.894;10.358;2024-02-26T09:05:14;8.00;99.90
54158;DHT22;40065;49.894;10.358;2024-02-26T09:10:16;7.90;99.90
54158;DHT22;40065;49.894;10.358;2024-02-26T09:15:18;8.00;99.90
54158;DHT22;40065;49.894;10.358;2024-02-26T09:20:20;8.30;99.90
54158;DHT22;40065;49.894;10.358;2024-02-26T09:25:23;8.30;99.90
54158;DHT22;40065;49.894;10.358;2024-02-26T09:30:25;8.10;99.90
54158;DHT22;40065;49.894;10.358;2024-02-26T09:35:27;8.50;99.90
54158;DHT22;40065;49.894;10.358;2024-02-26T09:40:29;8.80;99.90
54158;DHT22;40065;49.894;10.358;2024-02-26T09:45:32;8.90;99.90
54158;DHT22;40065;49.894;10.358;2024-02-26T09:50:35;8.90;99.90
54158;DHT22;40065;49.894;10.358;2024-02-26T09:55:37;8.40;99.90
54158;DHT22;40065;49.894;10.358;2024-02-26T10:00:40;8.60;99.90
54158;DHT22;40065;49.894;10.358;2024-02-26T10:05:43;8.90;99.90
54158;DHT22;40065;49.894;10.358;2024-02-26T10:10:45;9.30;99.90
54158;DHT22;40065;49.894;10.358;2024-02-26T10:15:47;9.70;99.90
54158;DHT22;40065;49.894;10.358;2024-02-26T10:21:00;10.00;99.90
54158;DHT22;40065;49.894;10.358;2024-02-26T10:26:03;9.80;99.90
54158;DHT22;40065;49.894;10.358;2024-02-26T10:31:06;9.70;99.90
54158;DHT22;40065;49.894;10.358;2024-02-26T10:36:08;10.00;99.90
54158;DHT22;40065;49.894;10.358;2024-02-26T10:41:13;10.90;99.90
54158;DHT22;40065;49.894;10.358;2024-02-26T10:46:17;11.30;99.90
54158;DHT22;40065;49.894;10.358;2024-02-26T10:51:30;12.10;99.90
54158;DHT22;40065;49.894;10.358;2024-02-26T10:56:34;11.80;97.10
54158;DHT22;40065;49.894;10.358;2024-02-26T11:01:36;11.40;98.60
54158;DHT22;40065;49.894;10.358;2024-02-26T11:06:44;12.00;97.90
54158;DHT22;40065;49.894;10.358;2024-02-26T11:11:47;11.60;99.10
54158;DHT22;40065;49.894;10.358;2024-02-26T11:16:50;12.50;98.20
54158;DHT22;40065;49.894;10.358;2024-02-26T11:21:52;12.60;97.90
54158;DHT22;40065;49.894;10.358;2024-02-26T11:26:58;12.40;97.20
54158;DHT22;40065;49.894;10.358;2024-02-26T11:32:02;12.00;97.40
54158;DHT22;40065;49.894;10.358;2024-02-26T11:37:11;14.70;93.70
54158;DHT22;40065;49.894;10.358;2024-02-26T11:42:16;13.00;94.80
54158;DHT22;40065;49.894;10.358;2024-02-26T11:47:20;11.90;96.80
54158;DHT22;40065;49.894;10.358;2024-02-26T11:52:22;11.90;97.70
54158;DHT22;40065;49.894;10.358;2024-02-26T11:57:49;12.20;96.50
54158;DHT22;40065;49.894;10.358;2024-02-26T12:02:50;11.70;97.20
54158;DHT22;40065;49.894;10.358;2024-02-26T12:08:05;11.50;98.00
54158;DHT22;40065;49.894;10.358;2024-02-26T12:13:13;11.60;97.60
54158;DHT22;40065;49.894;10.358;2024-02-26T12:18:21;11.60;98.30
54158;DHT22;40065;49.894;10.358;2024-02-26T12:23:24;11.80;98.20
54158;DHT22;40065;49.894;10.358;2024-02-26T12:28:29;11.20;99.40
54158;DHT22;40065;49.894;10.358;2024-02-26T12:33:31;11.70;98.50
54158;DHT22;40065;49.894;10.358;2024-02-26T12:38:33;11.80;98.50
54158;DHT22;40065;49.894;10.358;2024-02-26T12:43:37;12.00;98.80
54158;DHT22;40065;49.894;10.358;2024-02-26T12:48:39;12.40;98.40
54158;DHT22;40065;49.894;10.358;2024-02-26T12:53:44;12.00;98.00
54158;DHT22;40065;49.894;10.358;2024-02-26T12:58:47;12.10;97.90
54158;DHT22;40065;49.894;10.358;2024-02-26T13:03:50;11.90;97.80
54158;DHT22;40065;49.894;10.358;2024-02-26T13:08:57;11.80;97.50
54158;DHT22;40065;49.894;10.358;2024-02-26T13:14:00;11.90;97.10
54158;DHT22;40065;49.894;10.358;2024-02-26T13:19:10;11.90;97.50
54158;DHT22;40065;49.894;10.358;2024-02-26T13:24:15;11.30;98.20
54158;DHT22;40065;49.894;10.358;2024-02-26T13:29:18;11.40;98.20
54158;DHT22;40065;49.894;10.358;2024-02-26T13:34:28;11.60;97.90
54158;DHT22;40065;49.894;10.358;2024-02-26T13:39:32;11.30;98.80
54158;DHT22;40065;49.894;10.358;2024-02-26T13:44:34;11.30;99.20
54158;DHT22;40065;49.894;10.358;2024-02-26T13:49:41;11.40;98.90
54158;DHT22;40065;49.894;10.358;2024-02-26T13:54:43;11.40;99.80
54158;DHT22;40065;49.894;10.358;2024-02-26T13:59:45;11.50;99.90
54158;DHT22;40065;49.894;10.358;2024-02-26T14:04:47;11.30;99.90
54158;DHT22;40065;49.894;10.358;2024-02-26T14:09:48;11.40;99.90
54158;DHT22;40065;49.894;10.358;2024-02-26T14:14:52;11.40;99.90
54158;DHT22;40065;49.894;10.358;2024-02-26T14:19:55;11.40;99.90
54158;DHT22;40065;49.894;10.358;2024-02-26T14:24:57;11.30;99.90
54158;DHT22;40065;49.894;10.358;2024-02-26T14:29:59;10.90;99.90
54158;DHT22;40065;49.894;10.358;2024-02-26T14:35:01;10.80;99.90
54158;DHT22;40065;49.894;10.358;2024-02-26T14:40:05;10.70;99.90
54158;DHT22;40065;49.894;10.358;2024-02-26T14:45:07;10.70;99.80
54158;DHT22;40065;49.894;10.358;2024-02-26T14:50:11;10.60;99.90
54158;DHT22;40065;49.894;10.358;2024-02-26T14:55:13;10.60;99.90
54158;DHT22;40065;49.894;10.358;2024-02-26T15:00:15;10.60;99.90
54158;DHT22;40065;49.894;10.358;2024-02-26T15:05:18;10.60;99.90
54158;DHT22;40065;49.894;10.358;2024-02-26T15:10:22;10.60;99.90
54158;DHT22;40065;49.894;10.358;2024-02-26T15:15:24;10.60;99.90
54158;DHT22;40065;49.894;10.358;2024-02-26T15:20:26;10.60;99.90
54158;DHT22;40065;49.894;10.358;2024-02-26T15:25:28;10.70;99.90
54158;DHT22;40065;49.894;10.358;2024-02-26T15:30:29;10.60;99.90
54158;DHT22;40065;49.894;10.358;2024-02-26T15:35:31;10.60;99.90
54158;DHT22;40065;49.894;10.358;2024-02-26T15:40:33;10.60;99.90
54158;DHT22;40065;49.894;10.358;2024-02-26T15:45:35;10.60;99.90
54158;DHT22;40065;49.894;10.358;2024-02-26T15:50:37;10.50;99.90
54158;DHT22;40065;49.894;10.358;2024-02-26T15:55:39;10.50;99.90
54158;DHT22;40065;49.894;10.358;2024-02-26T16:00:42;10.40;99.90
54158;DHT22;40065;49.894;10.358;2024-02-26T16:05:44;10.30;99.90
54158;DHT22;40065;49.894;10.358;2024-02-26T16:10:47;10.20;99.90
54158;DHT22;40065;49.894;10.358;2024-02-26T16:16:02;10.10;99.90
54158;DHT22;40065;49.894;10.358;2024-02-26T16:21:05;10.00;99.90
54158;DHT22;40065;49.894;10.358;2024-02-26T16:26:07;9.90;99.90
54158;DHT22;40065;49.894;10.358;2024-02-26T16:31:09;9.90;99.90
54158;DHT22;40065;49.894;10.358;2024-02-26T16:36:11;9.80;99.90
54158;DHT22;40065;49.894;10.358;2024-02-26T16:41:14;9.70;99.90
54158;DHT22;40065;49.894;10.358;2024-02-26T16:46:16;9.70;99.90
54158;DHT22;40065;49.894;10.358;2024-02-26T16:51:19;9.60;99.90
54158;DHT22;40065;49.894;10.358;2024-02-26T16:56:21;9.50;99.90
54158;DHT22;40065;49.894;10.358;2024-02-26T17:01:23;9.40;99.90
54158;DHT22;40065;49.894;10.358;2024-02-26T17:06:25;9.30;99.90
54158;DHT22;40065;49.894;10.358;2024-02-26T17:11:27;9.20;99.90
54158;DHT22;40065;49.894;10.358;2024-02-26T17:16:32;9.10;99.90
54158;DHT22;40065;49.894;10.358;2024-02-26T17:21:34;9.10;99.90
54158;DHT22;40065;49.894;10.358;2024-02-26T17:26:36;9.00;99.90
54158;DHT22;40065;49.894;10.358;2024-02-26T17:31:38;9.00;99.90
54158;DHT22;40065;49.894;10.358;2024-02-26T17:36:44;9.00;99.90
54158;DHT22;40065;49.894;10.358;2024-02-26T17:41:46;9.00;99.90
54158;DHT22;40065;49.894;10.358;2024-02-26T17:46:48;9.00;99.90
54158;DHT22;40065;49.894;10.358;2024-02-26T17:51:49;9.00;99.90
54158;DHT22;40065;49.894;10.358;2024-02-26T17:56:51;8.90;99.90
54158;DHT22;40065;49.894;10.358;2024-02-26T18:01:54;8.90;99.90
54158;DHT22;40065;49.894;10.358;2024-02-26T18:06:56;8.80;99.90
54158;DHT22;40065;49.894;10.358;2024-02-26T18:11:58;8.80;99.90
54158;DHT22;40065;49.894;10.358;2024-02-26T18:17:01;8.90;99.90
54158;DHT22;40065;49.894;10.358;2024-02-26T18:22:03;8.80;99.90
54158;DHT22;40065;49.894;10.358;2024-02-26T18:27:06;8.90;99.90
54158;DHT22;40065;49.894;10.358;2024-02-26T18:32:08;8.80;99.90
54158;DHT22;40065;49.894;10.358;2024-02-26T18:37:10;8.80;99.90
54158;DHT22;40065;49.894;10.358;2024-02-26T18:42:12;8.70;99.90
54158;DHT22;40065;49.894;10.358;2024-02-26T18:47:16;8.70;99.90
54158;DHT22;40065;49.894;10.358;2024-02-26T18:52:20;8.60;99.90
54158;DHT22;40065;49.894;10.358;2024-02-26T18:57:23;8.60;99.90
54158;DHT22;40065;49.894;10.358;2024-02-26T19:02:25;8.50;99.90
54158;DHT22;40065;49.894;10.358;2024-02-26T19:07:30;8.50;99.90
54158;DHT22;40065;49.894;10.358;2024-02-26T19:12:31;8.50;99.90
54158;DHT22;40065;49.894;10.358;2024-02-26T19:17:33;8.40;99.90
54158;DHT22;40065;49.894;10.358;2024-02-26T19:22:35;8.40;99.90
54158;DHT22;40065;49.894;10.358;2024-02-26T19:27:43;8.40;99.90
54158;DHT22;40065;49.894;10.358;2024-02-26T19:32:45;8.30;99.90
54158;DHT22;40065;49.894;10.358;2024-02-26T19:37:47;8.40;99.90
54158;DHT22;40065;49.894;10.358;2024-02-26T19:42:49;8.40;99.90
54158;DHT22;40065;49.894;10.358;2024-02-26T19:47:51;8.40;99.90
54158;DHT22;40065;49.894;10.358;2024-02-26T19:52:52;8.30;99.90
54158;DHT22;40065;49.894;10.358;2024-02-26T19:57:55;8.40;99.90
54158;DHT22;40065;49.894;10.358;2024-02-26T20:03:00;8.50;99.90
54158;DHT22;40065;49.894;10.358;2024-02-26T20:08:02;8.50;99.90
54158;DHT22;40065;49.894;10.358;2024-02-26T20:13:05;8.40;99.90
54158;DHT22;40065;49.894;10.358;2024-02-26T20:18:07;8.60;99.90
54158;DHT22;40065;49.894;10.358;2024-02-26T20:23:10;8.60;99.90
54158;DHT22;40065;49.894;10.358;2024-02-26T20:28:12;8.50;99.90
54158;DHT22;40065;49.894;10.358;2024-02-26T20:33:13;8.40;99.90
54158;DHT22;40065;49.894;10.358;2024-02-26T20:38:15;8.40;99.90
54158;DHT22;40065;49.894;10.358;2024-02-26T20:43:19;8.30;99.90
54158;DHT22;40065;49.894;10.358;2024-02-26T20:48:21;8.40;99.90
54158;DHT22;40065;49.894;10.358;2024-02-26T20:53:23;8.40;99.90
54158;DHT22;40065;49.894;10.358;2024-02-26T20:58:25;8.50;99.90
54158;DHT22;40065;49.894;10.358;2024-02-26T21:03:27;8.40;99.90
54158;DHT22;40065;49.894;10.358;2024-02-26T21:08:29;8.40;99.90
54158;DHT22;40065;49.894;10.358;2024-02-26T21:13:39;8.40;99.90
54158;DHT22;40065;49.894;10.358;2024-02-26T21:18:42;8.30;99.90
54158;DHT22;40065;49.894;10.358;2024-02-26T21:23:45;8.30;99.90
54158;DHT22;40065;49.894;10.358;2024-02-26T21:28:47;8.20;99.90
54158;DHT22;40065;49.894;10.358;2024-02-26T21:33:49;8.30;99.90
54158;DHT22;40065;49.894;10.358;2024-02-26T21:38:51;8.30;99.90
54158;DHT22;40065;49.894;10.358;2024-02-26T21:43:53;8.30;99.90
54158;DHT22;40065;49.894;10.358;2024-02-26T21:48:55;8.40;99.90
54158;DHT22;40065;49.894;10.358;2024-02-26T21:53:57;8.40;99.90
54158;DHT22;40065;49.894;10.358;2024-02-26T21:58:59;8.30;99.90
54158;DHT22;40065;49.894;10.358;2024-02-26T22:04:02;8.30;99.90
54158;DHT22;40065;49.894;10.358;2024-02-26T22:09:04;8.40;99.90
54158;DHT22;40065;49.894;10.358;2024-02-26T22:14:07;8.40;99.90
54158;DHT22;40065;49.894;10.358;2024-02-26T22:19:08;8.40;99.90
54158;DHT22;40065;49.894;10.358;2024-02-26T22:24:14;8.30;99.90
54158;DHT22;40065;49.894;10.358;2024-02-26T22:29:16;8.30;99.90
54158;DHT22;40065;49.894;10.358;2024-02-26T22:34:18;8.20;99.90
54158;DHT22;40065;49.894;10.358;2024-02-26T22:39:20;8.20;99.90
54158;DHT22;40065;49.894;10.358;2024-02-26T22:44:23;8.20;99.90
54158;DHT22;40065;49.894;10.358;2024-02-26T22:49:25;8.20;99.90
54158;DHT22;40065;49.894;10.358;2024-02-26T22:54:27;8.30;99.90
54158;DHT22;40065;49.894;10.358;2024-02-26T22:59:29;8.20;99.90
54158;DHT22;40065;49.894;10.358;2024-02-26T23:04:32;8.20;99.90
54158;DHT22;40065;49.894;10.358;2024-02-26T23:09:34;8.10;99.90
54158;DHT22;40065;49.894;10.358;2024-02-26T23:14:36;8.10;99.90
54158;DHT22;40065;49.894;10.358;2024-02-26T23:19:38;8.00;99.90
54158;DHT22;40065;49.894;10.358;2024-02-26T23:24:40;8.00;99.90
54158;DHT22;40065;49.894;10.358;2024-02-26T23:29:42;8.00;99.90
54158;DHT22;40065;49.894;10.358;2024-02-26T23:34:44;8.00;99.90
54158;DHT22;40065;49.894;10.358;2024-02-26T23:39:46;7.90;99.90
54158;DHT22;40065;49.894;10.358;2024-02-26T23:44:48;7.90;99.90
54158;DHT22;40065;49.894;10.358;2024-02-26T23:49:50;7.80;99.90
54158;DHT22;40065;49.894;10.358;2024-02-26T23:54:52;7.80;99.90
54158;DHT22;40065;49.894;10.358;2024-02-26T23:59:54;7.70;99.90
